Time;durP1;ratioP1;P1;durP2;ratioP2;P2;SDS_P1;SDS_P2;PMS_P1;PMS_P2;Temp;Humidity;BMP_temperature;BMP_pressure;BME280_temperature;BME280_humidity;BME280_pressure;Samples;Min_cycle;Max_cycle;Signal;HPM_P1;HPM_P2
2022/10/08 00:01:04;;;;;;;14.75;3.33;;;12.60;99.90;;;;;;5084975;28;20040;-83
2022/10/08 00:03:33;;;;;;;13.63;2.83;;;12.70;99.90;;;;;;5066370;28;20919;-83
2022/10/08 00:06:02;;;;;;;16.45;3.53;;;12.60;99.90;;;;;;5068237;28;20036;-87
2022/10/08 00:08:33;;;;;;;12.68;2.78;;;12.60;99.90;;;;;;5067623;28;20051;-82
2022/10/08 00:11:05;;;;;;;13.05;2.60;;;12.60;99.90;;;;;;5063848;28;20040;-84
2022/10/08 00:13:39;;;;;;;19.75;3.55;;;12.70;99.90;;;;;;5052473;28;20690;-84
2022/10/08 00:16:11;;;;;;;14.85;3.28;;;12.60;99.90;;;;;;5064519;28;20044;-82
2022/10/08 00:18:38;;;;;;;14.77;2.80;;;12.60;99.90;;;;;;5054075;28;20060;-84
2022/10/08 00:21:06;;;;;;;15.50;3.83;;;12.50;99.90;;;;;;5054430;28;20097;-85
2022/10/08 00:23:33;;;;;;;16.85;3.78;;;12.60;99.90;;;;;;5085811;28;20118;-86
2022/10/08 00:26:06;;;;;;;14.25;3.30;;;12.60;99.90;;;;;;5085839;28;20032;-86
2022/10/08 00:28:48;;;;;;;14.48;3.22;;;12.60;99.90;;;;;;5088283;28;20495;-85
2022/10/08 00:31:17;;;;;;;13.55;2.88;;;12.50;99.90;;;;;;5073872;28;20044;-87
2022/10/08 00:33:43;;;;;;;12.35;2.80;;;12.50;99.90;;;;;;5068478;28;20032;-85
2022/10/08 00:36:12;;;;;;;13.63;3.35;;;12.50;99.90;;;;;;5068549;28;20048;-85
2022/10/08 00:38:38;;;;;;;15.23;2.97;;;12.50;99.90;;;;;;5047925;28;20097;-81
2022/10/08 00:41:06;;;;;;;13.00;2.75;;;12.50;99.90;;;;;;5066853;28;20108;-81
2022/10/08 00:43:42;;;;;;;13.82;2.75;;;12.50;99.90;;;;;;5083803;28;20064;-81
2022/10/08 00:46:33;;;;;;;14.85;2.67;;;12.60;99.90;;;;;;5045362;28;20074;-82
2022/10/08 00:49:16;;;;;;;11.25;2.50;;;12.50;99.90;;;;;;5054699;28;20101;-85
2022/10/08 00:51:48;;;;;;;12.75;2.45;;;12.50;99.90;;;;;;5047089;28;20056;-84
2022/10/08 00:54:50;;;;;;;8.18;2.40;;;12.50;99.90;;;;;;5029788;28;20127;-84
2022/10/08 00:57:17;;;;;;;17.52;2.70;;;12.50;99.90;;;;;;5062492;28;20508;-87
2022/10/08 00:59:42;;;;;;;11.30;2.60;;;12.50;99.90;;;;;;5044186;28;20041;-85
2022/10/08 01:02:09;;;;;;;8.65;2.30;;;12.30;99.90;;;;;;5033648;28;20456;-82
2022/10/08 01:04:37;;;;;;;12.05;2.72;;;12.50;99.90;;;;;;5035548;28;20052;-85
2022/10/08 01:07:24;;;;;;;7.75;2.08;;;12.40;99.90;;;;;;5051521;28;20605;-84
2022/10/08 01:10:10;;;;;;;9.00;2.30;;;12.50;99.90;;;;;;5038452;28;20071;-86
2022/10/08 01:12:35;;;;;;;8.23;2.08;;;12.40;99.90;;;;;;5029515;28;20053;-83
2022/10/08 01:15:14;;;;;;;9.98;2.10;;;12.40;99.90;;;;;;5054780;28;20044;-84
2022/10/08 01:17:53;;;;;;;10.02;2.45;;;12.40;99.90;;;;;;5052177;28;20106;-82
2022/10/08 01:21:00;;;;;;;10.43;2.58;;;12.50;99.90;;;;;;5048767;28;20420;-85
2022/10/08 01:23:56;;;;;;;7.95;2.38;;;12.40;99.90;;;;;;5035240;28;20048;-82
2022/10/08 01:26:49;;;;;;;7.88;2.20;;;12.40;99.90;;;;;;4958111;28;20074;-82
2022/10/08 01:29:28;;;;;;;9.57;2.55;;;12.30;99.90;;;;;;4961240;28;20055;-84
2022/10/08 01:32:02;;;;;;;9.00;2.20;;;12.40;99.90;;;;;;4957699;28;20419;-84
2022/10/08 01:34:42;;;;;;;8.45;2.22;;;12.30;99.90;;;;;;4963357;28;20213;-83
2022/10/08 01:37:15;;;;;;;7.90;2.05;;;12.30;99.90;;;;;;4949999;28;20045;-86
2022/10/08 01:39:46;;;;;;;11.55;2.00;;;12.20;99.90;;;;;;4951302;28;20209;-83
2022/10/08 01:42:12;;;;;;;6.80;1.98;;;12.20;99.90;;;;;;4963504;28;20049;-83
2022/10/08 01:44:51;;;;;;;10.32;2.45;;;12.10;99.90;;;;;;4967601;28;20051;-83
2022/10/08 01:47:22;;;;;;;9.32;2.08;;;12.00;99.90;;;;;;4966808;28;20220;-85
2022/10/08 01:49:54;;;;;;;5.65;1.88;;;11.90;99.90;;;;;;4948726;28;20471;-84
2022/10/08 01:52:24;;;;;;;12.65;2.22;;;11.90;99.90;;;;;;4981847;28;20121;-85
2022/10/08 01:54:58;;;;;;;7.57;2.03;;;12.00;99.90;;;;;;4962757;28;20066;-83
2022/10/08 01:57:26;;;;;;;5.68;1.85;;;11.80;99.90;;;;;;4956746;28;20054;-83
2022/10/08 02:00:08;;;;;;;6.47;1.92;;;11.80;99.90;;;;;;4952289;28;20182;-82
2022/10/08 02:02:34;;;;;;;7.68;1.90;;;11.70;99.90;;;;;;4952648;28;20042;-82
2022/10/08 02:05:01;;;;;;;10.23;2.30;;;11.70;99.90;;;;;;5042656;28;20060;-81
2022/10/08 02:07:31;;;;;;;8.40;2.20;;;11.70;99.90;;;;;;5047252;28;20037;-81
2022/10/08 02:10:10;;;;;;;8.98;2.10;;;11.50;99.90;;;;;;5036234;28;20093;-83
2022/10/08 02:12:39;;;;;;;12.50;2.45;;;11.60;99.90;;;;;;5066809;28;20080;-84
2022/10/08 02:15:27;;;;;;;10.27;2.25;;;11.60;99.90;;;;;;5046035;28;20040;-83
2022/10/08 02:18:05;;;;;;;6.25;2.20;;;11.50;99.90;;;;;;5066882;28;20040;-84
2022/10/08 02:20:46;;;;;;;9.27;2.50;;;11.40;99.90;;;;;;5066583;28;20135;-82
2022/10/08 02:23:29;;;;;;;9.55;2.38;;;11.50;99.90;;;;;;5070979;28;20127;-83
2022/10/08 02:26:24;;;;;;;6.28;2.03;;;11.40;99.90;;;;;;5060779;28;20128;-82
2022/10/08 02:29:01;;;;;;;9.02;2.20;;;11.40;99.90;;;;;;5065937;28;20091;-83
2022/10/08 02:31:48;;;;;;;12.63;2.50;;;11.30;99.90;;;;;;5054230;28;20071;-82
2022/10/08 02:34:31;;;;;;;11.70;2.55;;;11.30;99.90;;;;;;5073997;28;20037;-81
2022/10/08 02:37:09;;;;;;;10.80;2.40;;;11.30;99.90;;;;;;5057414;28;20051;-81
2022/10/08 02:39:38;;;;;;;12.77;2.50;;;11.20;99.90;;;;;;5052315;28;20037;-84
2022/10/08 02:42:09;;;;;;;9.50;2.70;;;11.20;99.90;;;;;;5051897;28;20047;-82
2022/10/08 02:44:44;;;;;;;11.00;2.38;;;11.30;99.90;;;;;;5068578;28;20036;-84
2022/10/08 02:47:13;;;;;;;;;;;11.10;99.90;;;;;;5068842;28;20406;-82
2022/10/08 02:49:46;;;;;;;9.18;2.60;;;11.20;99.90;;;;;;5051924;28;20298;-84
2022/10/08 02:52:13;;;;;;;11.48;2.65;;;11.10;99.90;;;;;;5052013;28;20044;-83
2022/10/08 02:54:42;;;;;;;13.32;2.53;;;11.00;99.90;;;;;;5052631;28;20046;-81
2022/10/08 02:57:14;;;;;;;11.65;2.55;;;11.20;99.90;;;;;;5047378;28;21459;-82
2022/10/08 02:59:41;;;;;;;12.85;2.70;;;11.00;99.90;;;;;;5064152;28;20047;-81
2022/10/08 03:02:10;;;;;;;10.05;2.58;;;11.10;99.90;;;;;;5053146;28;20050;-82
2022/10/08 03:04:41;;;;;;;13.60;2.85;;;11.00;99.90;;;;;;5067214;28;20047;-84
2022/10/08 03:07:08;;;;;;;11.18;2.53;;;11.00;99.90;;;;;;5067052;28;20097;-83
2022/10/08 03:09:38;;;;;;;12.48;3.03;;;10.90;99.90;;;;;;5053576;28;20042;-84
2022/10/08 03:12:05;;;;;;;10.10;2.40;;;10.90;99.90;;;;;;5067975;28;20044;-82
2022/10/08 03:14:35;;;;;;;11.65;2.90;;;10.90;99.90;;;;;;5067586;28;20598;-82
2022/10/08 03:17:01;;;;;;;10.27;2.50;;;11.00;99.90;;;;;;5050395;28;20045;-83
2022/10/08 03:19:27;;;;;;;11.05;2.67;;;11.00;99.90;;;;;;5051941;28;20042;-83
2022/10/08 03:21:55;;;;;;;9.45;2.85;;;10.90;99.90;;;;;;5067252;28;20071;-83
2022/10/08 03:24:21;;;;;;;10.43;2.70;;;11.10;99.90;;;;;;5065888;28;20424;-82
2022/10/08 03:27:24;;;;;;;7.38;2.80;;;11.00;99.90;;;;;;5051567;28;20036;-82
2022/10/08 03:29:55;;;;;;;15.40;3.38;;;11.00;99.90;;;;;;5069005;28;20043;-81
2022/10/08 03:32:24;;;;;;;16.02;3.42;;;11.00;99.90;;;;;;5054121;28;20606;-83
2022/10/08 03:34:51;;;;;;;10.45;3.28;;;11.00;99.90;;;;;;5068933;28;20044;-82
2022/10/08 03:37:16;;;;;;;15.27;3.38;;;11.00;99.90;;;;;;5062016;28;20161;-84
2022/10/08 03:39:42;;;;;;;21.95;3.90;;;11.10;99.90;;;;;;5082511;28;20047;-83
2022/10/08 03:42:08;;;;;;;17.10;3.75;;;11.00;99.90;;;;;;5052791;28;20467;-83
2022/10/08 03:44:34;;;;;;;17.70;3.60;;;11.00;99.90;;;;;;5056481;28;20044;-82
2022/10/08 03:47:00;;;;;;;14.95;3.53;;;11.00;99.90;;;;;;5060746;28;20048;-83
2022/10/08 03:49:26;;;;;;;18.98;3.78;;;11.20;99.90;;;;;;5067655;28;20040;-82
2022/10/08 03:51:52;;;;;;;9.23;3.30;;;11.20;99.90;;;;;;5066522;28;20040;-82
2022/10/08 03:54:17;;;;;;;11.90;3.80;;;11.10;99.90;;;;;;5062445;28;20067;-83
2022/10/08 03:57:39;;;;;;;13.05;3.40;;;11.10;99.90;;;;;;5043435;28;20070;-83
2022/10/08 04:00:05;;;;;;;17.13;3.35;;;11.10;99.90;;;;;;5061247;28;20432;-82
2022/10/08 04:02:31;;;;;;;18.15;3.75;;;11.10;99.90;;;;;;5041529;28;20040;-83
2022/10/08 04:04:57;;;;;;;18.67;3.97;;;11.00;99.90;;;;;;5080071;28;20081;-83
2022/10/08 04:07:23;;;;;;;14.98;3.40;;;11.00;99.90;;;;;;5063763;28;20040;-83
2022/10/08 04:09:48;;;;;;;10.27;3.45;;;11.00;99.90;;;;;;5083623;28;20418;-81
2022/10/08 04:12:14;;;;;;;17.92;4.10;;;11.00;99.90;;;;;;5064597;28;20602;-82
2022/10/08 04:14:40;;;;;;;16.50;3.38;;;10.80;99.90;;;;;;5085974;28;20329;-83
2022/10/08 04:17:05;;;;;;;16.17;3.53;;;10.80;99.90;;;;;;5050196;28;20119;-82
2022/10/08 04:19:31;;;;;;;16.58;3.72;;;10.80;99.90;;;;;;5064256;28;20044;-84
2022/10/08 04:21:57;;;;;;;15.73;3.95;;;10.70;99.90;;;;;;5062554;28;20040;-84
2022/10/08 04:24:22;;;;;;;13.50;3.92;;;10.80;99.90;;;;;;5053052;28;20071;-83
2022/10/08 04:27:48;;;;;;;18.35;3.97;;;10.70;99.90;;;;;;5047227;28;20104;-84
2022/10/08 04:30:14;;;;;;;17.80;4.03;;;10.70;99.90;;;;;;5049169;28;20040;-83
2022/10/08 04:32:40;;;;;;;11.93;3.40;;;10.60;99.90;;;;;;5066108;28;20100;-83
2022/10/08 04:35:06;;;;;;;17.95;3.22;;;10.50;99.90;;;;;;5046309;28;20131;-83
2022/10/08 04:37:32;;;;;;;13.05;3.40;;;10.50;99.90;;;;;;5086590;28;20119;-84
2022/10/08 04:39:58;;;;;;;17.02;3.53;;;10.60;99.90;;;;;;5065428;28;20048;-82
2022/10/08 04:42:24;;;;;;;15.57;3.47;;;10.40;99.90;;;;;;5063591;28;21347;-84
2022/10/08 04:44:50;;;;;;;20.17;3.55;;;10.40;99.90;;;;;;5066097;28;20089;-83
2022/10/08 04:47:15;;;;;;;13.23;3.70;;;10.40;99.90;;;;;;5047861;28;20044;-83
2022/10/08 04:49:41;;;;;;;17.38;3.60;;;10.30;99.90;;;;;;5063229;28;20048;-84
2022/10/08 04:52:07;;;;;;;15.52;3.40;;;10.30;99.90;;;;;;5063287;28;20032;-82
2022/10/08 04:54:33;;;;;;;22.95;3.55;;;10.30;99.90;;;;;;5061982;28;20048;-83
2022/10/08 04:56:58;;;;;;;14.65;3.50;;;10.30;99.90;;;;;;5046384;28;20040;-83
2022/10/08 04:59:24;;;;;;;16.77;3.17;;;10.30;99.90;;;;;;5064763;28;20513;-83
2022/10/08 05:01:51;;;;;;;20.98;3.65;;;10.30;99.90;;;;;;5081509;28;20376;-83
2022/10/08 05:04:17;;;;;;;17.02;3.30;;;10.20;99.90;;;;;;5064356;28;20044;-83
2022/10/08 05:06:42;;;;;;;19.85;3.40;;;10.20;99.90;;;;;;5046194;28;20039;-83
2022/10/08 05:09:08;;;;;;;22.70;3.67;;;10.20;99.90;;;;;;5063955;28;20132;-82
2022/10/08 05:11:34;;;;;;;23.95;4.18;;;10.20;99.90;;;;;;5049111;28;20181;-83
2022/10/08 05:14:01;;;;;;;21.63;4.13;;;10.10;99.90;;;;;;5063043;28;20040;-83
2022/10/08 05:16:26;;;;;;;16.27;4.03;;;10.10;99.90;;;;;;5051004;28;20115;-83
2022/10/08 05:18:53;;;;;;;30.75;4.50;;;10.20;99.90;;;;;;5083841;28;20151;-82
2022/10/08 05:21:25;;;;;;;27.13;4.22;;;10.20;99.90;;;;;;5049701;28;20052;-82
2022/10/08 05:24:00;;;;;;;17.05;4.00;;;10.10;99.90;;;;;;5047703;28;20040;-83
2022/10/08 05:26:29;;;;;;;25.80;3.92;;;10.20;99.90;;;;;;5085533;28;20044;-83
2022/10/08 05:28:56;;;;;;;12.68;3.58;;;10.10;99.90;;;;;;5049624;28;20182;-81
2022/10/08 05:31:23;;;;;;;19.45;4.45;;;10.10;99.90;;;;;;5085155;28;20158;-82
2022/10/08 05:33:49;;;;;;;18.42;3.60;;;10.10;99.90;;;;;;5069102;28;20051;-82
2022/10/08 05:36:24;;;;;;;12.98;3.67;;;10.00;99.90;;;;;;5067485;28;20391;-82
2022/10/08 05:38:50;;;;;;;21.58;3.90;;;10.00;99.90;;;;;;5089081;28;20152;-82
2022/10/08 05:41:24;;;;;;;27.63;3.35;;;10.00;99.90;;;;;;5071407;28;20036;-82
2022/10/08 05:43:52;;;;;;;19.73;3.37;;;10.00;99.90;;;;;;5094285;28;20039;-83
2022/10/08 05:46:17;;;;;;;19.15;3.95;;;9.80;99.90;;;;;;5087386;28;20190;-78
2022/10/08 05:48:43;;;;;;;20.23;3.58;;;9.90;99.90;;;;;;5074876;28;20048;-80
2022/10/08 05:51:12;;;;;;;14.35;3.20;;;9.90;99.90;;;;;;5061656;28;20032;-81
2022/10/08 05:53:42;;;;;;;19.55;3.53;;;9.90;99.90;;;;;;5066978;28;20048;-82
2022/10/08 05:56:10;;;;;;;16.83;3.65;;;9.90;99.90;;;;;;5057553;28;20371;-81
2022/10/08 05:58:38;;;;;;;16.42;3.53;;;10.00;99.90;;;;;;5059594;28;20511;-81
2022/10/08 06:01:11;;;;;;;20.88;3.35;;;9.90;99.90;;;;;;5047862;28;20039;-82
2022/10/08 06:03:37;;;;;;;24.30;3.30;;;9.90;99.90;;;;;;5076978;28;20439;-83
2022/10/08 06:06:09;;;;;;;20.88;2.80;;;9.80;99.90;;;;;;5094526;28;20036;-81
2022/10/08 06:08:35;;;;;;;19.23;2.80;;;9.90;99.90;;;;;;5090847;28;20054;-81
2022/10/08 06:11:05;;;;;;;23.48;3.35;;;9.90;99.90;;;;;;5077671;28;20101;-82
2022/10/08 06:13:31;;;;;;;22.90;2.97;;;10.00;99.90;;;;;;5081538;28;20032;-81
2022/10/08 06:15:57;;;;;;;18.95;3.30;;;10.00;99.90;;;;;;5057499;28;20040;-82
2022/10/08 06:18:24;;;;;;;23.95;3.35;;;10.10;99.90;;;;;;5059876;28;20051;-82
2022/10/08 06:20:51;;;;;;;14.10;2.92;;;10.00;99.90;;;;;;5052125;28;20039;-83
2022/10/08 06:23:18;;;;;;;19.52;2.92;;;10.00;99.90;;;;;;5069477;28;20036;-83
2022/10/08 06:25:44;;;;;;;18.25;3.03;;;10.00;99.90;;;;;;5068817;28;20047;-84
2022/10/08 06:28:09;;;;;;;21.45;2.92;;;10.00;99.90;;;;;;5069995;28;20041;-83
2022/10/08 06:30:35;;;;;;;19.35;2.80;;;10.10;99.90;;;;;;5069406;28;20066;-81
2022/10/08 06:33:01;;;;;;;16.70;2.80;;;10.20;99.90;;;;;;5073621;28;20044;-82
2022/10/08 06:35:26;;;;;;;13.70;2.72;;;10.30;99.90;;;;;;5068302;28;20102;-82
2022/10/08 06:37:52;;;;;;;17.50;2.92;;;10.40;99.90;;;;;;5050416;28;20591;-82
2022/10/08 06:40:18;;;;;;;18.08;3.00;;;10.30;99.90;;;;;;5064798;28;20044;-82
2022/10/08 06:42:44;;;;;;;26.02;3.22;;;10.40;99.90;;;;;;5064795;28;20092;-82
2022/10/08 06:45:10;;;;;;;24.23;3.05;;;10.60;99.90;;;;;;5050573;28;20220;-83
2022/10/08 06:47:35;;;;;;;13.65;2.88;;;10.70;99.90;;;;;;5049674;28;20547;-83
2022/10/08 06:50:01;;;;;;;19.55;2.25;;;10.80;99.90;;;;;;5067025;28;20105;-83
2022/10/08 06:52:27;;;;;;;14.02;2.50;;;10.90;99.90;;;;;;5063243;28;20040;-82
2022/10/08 06:54:52;;;;;;;10.80;1.65;;;11.00;99.90;;;;;;5065914;28;20040;-84
2022/10/08 06:57:18;;;;;;;8.68;1.35;;;11.00;99.90;;;;;;5066217;28;20040;-84
2022/10/08 06:59:44;;;;;;;12.70;1.88;;;11.00;99.90;;;;;;5067490;28;20056;-82
2022/10/08 07:02:10;;;;;;;11.60;2.17;;;10.90;99.90;;;;;;5050615;28;20060;-81
2022/10/08 07:04:36;;;;;;;5.60;1.30;;;10.90;99.90;;;;;;5066726;28;20055;-82
2022/10/08 07:07:01;;;;;;;5.05;1.40;;;11.00;99.90;;;;;;5067017;28;20403;-81
2022/10/08 07:09:27;;;;;;;9.38;1.60;;;11.00;99.90;;;;;;5066442;28;20037;-82
2022/10/08 07:11:53;;;;;;;6.57;1.38;;;10.90;99.90;;;;;;5048652;28;20410;-83
2022/10/08 07:14:19;;;;;;;13.30;1.75;;;11.00;99.90;;;;;;5047333;28;20134;-84
2022/10/08 07:16:44;;;;;;;8.43;1.50;;;11.00;99.90;;;;;;5064481;28;20048;-82
2022/10/08 07:19:10;;;;;;;12.98;2.28;;;11.00;99.90;;;;;;5049672;28;20048;-85
2022/10/08 07:21:35;;;;;;;9.75;1.90;;;11.00;99.90;;;;;;5050677;28;20395;-87
2022/10/08 07:24:01;;;;;;;13.80;1.80;;;11.00;99.90;;;;;;5047426;28;20048;-85
2022/10/08 07:26:31;;;;;;;12.48;2.05;;;11.10;99.90;;;;;;5062536;28;20052;-87
2022/10/08 07:29:03;;;;;;;9.13;1.95;;;11.00;99.90;;;;;;5044564;28;20189;-84
2022/10/08 07:31:31;;;;;;;11.10;1.70;;;11.30;99.90;;;;;;5061775;28;20045;-86
2022/10/08 07:34:01;;;;;;;6.95;1.67;;;11.20;99.90;;;;;;5048550;28;20229;-85
2022/10/08 07:36:27;;;;;;;9.07;1.50;;;11.30;99.90;;;;;;5069042;28;20139;-84
2022/10/08 07:39:02;;;;;;;10.27;2.22;;;11.40;99.90;;;;;;5065025;28;20045;-85
2022/10/08 07:41:29;;;;;;;9.27;1.90;;;11.50;99.90;;;;;;5049189;28;20041;-86
2022/10/08 07:43:59;;;;;;;13.43;1.98;;;11.30;99.90;;;;;;5067235;28;20064;-85
2022/10/08 07:46:26;;;;;;;10.30;1.73;;;11.30;99.90;;;;;;5068904;28;20075;-83
2022/10/08 07:48:55;;;;;;;14.77;2.17;;;11.10;99.90;;;;;;5074669;28;20425;-86
2022/10/08 07:51:21;;;;;;;9.75;1.58;;;11.30;99.90;;;;;;5049880;28;20080;-83
2022/10/08 07:53:47;;;;;;;14.80;2.10;;;11.30;99.90;;;;;;5063780;28;22623;-84
2022/10/08 07:56:15;;;;;;;5.60;1.73;;;11.30;99.90;;;;;;5063747;28;20094;-83
2022/10/08 07:58:41;;;;;;;14.18;2.00;;;11.30;99.90;;;;;;5043294;28;20040;-84
2022/10/08 08:01:10;;;;;;;11.18;1.90;;;11.30;99.90;;;;;;5052266;28;20045;-84
2022/10/08 08:03:36;;;;;;;11.55;1.70;;;11.40;99.90;;;;;;5068903;28;20115;-85
2022/10/08 08:06:09;;;;;;;10.15;1.73;;;11.60;99.90;;;;;;5067464;28;20472;-82
2022/10/08 08:08:36;;;;;;;18.10;2.15;;;11.60;99.90;;;;;;5070791;28;20115;-84
2022/10/08 08:11:03;;;;;;;8.73;1.80;;;11.70;99.90;;;;;;5065624;28;20056;-85
2022/10/08 08:13:31;;;;;;;10.75;1.77;;;11.80;99.90;;;;;;5034856;28;20049;-85
2022/10/08 08:15:59;;;;;;;15.98;1.85;;;11.90;99.90;;;;;;5059577;28;20036;-84
2022/10/08 08:18:27;;;;;;;10.50;2.17;;;12.00;99.90;;;;;;5066885;28;20064;-82
2022/10/08 08:21:02;;;;;;;10.98;1.60;;;12.20;99.90;;;;;;5053604;28;20047;-82
2022/10/08 08:23:32;;;;;;;12.32;1.75;;;12.60;99.90;;;;;;5049683;28;20047;-83
2022/10/08 08:26:21;;;;;;;6.97;1.65;;;12.60;99.90;;;;;;5046586;28;20122;-82
2022/10/08 08:28:55;;;;;;;12.13;1.80;;;12.90;99.90;;;;;;5066732;28;20049;-84
2022/10/08 08:31:24;;;;;;;13.68;1.38;;;13.00;99.90;;;;;;5068363;28;20064;-82
2022/10/08 08:33:52;;;;;;;10.32;1.65;;;13.10;99.90;;;;;;5070838;28;20119;-82
2022/10/08 08:36:19;;;;;;;11.25;1.58;;;13.00;99.90;;;;;;5040560;28;20141;-84
2022/10/08 08:38:45;;;;;;;8.27;1.70;;;13.10;99.90;;;;;;5057138;28;20041;-84
2022/10/08 08:41:19;;;;;;;11.95;1.60;;;13.10;99.90;;;;;;5048274;28;20048;-84
2022/10/08 08:43:45;;;;;;;10.85;2.00;;;13.20;99.90;;;;;;5063557;28;20419;-83
2022/10/08 08:46:15;;;;;;;13.40;1.55;;;13.20;99.90;;;;;;5028568;28;20131;-81
2022/10/08 08:48:44;;;;;;;10.30;1.50;;;13.20;99.90;;;;;;5046681;28;20040;-83
2022/10/08 08:51:10;;;;;;;9.02;1.48;;;13.10;99.90;;;;;;5052492;28;20045;-82
2022/10/08 08:53:36;;;;;;;10.80;1.60;;;13.00;99.90;;;;;;5050900;28;20074;-84
2022/10/08 08:56:05;;;;;;;11.98;1.80;;;13.00;99.90;;;;;;5054560;28;20098;-82
2022/10/08 08:58:40;;;;;;;15.35;1.90;;;13.00;99.90;;;;;;5037508;28;20122;-83
2022/10/08 09:01:08;;;;;;;;;;;13.00;99.90;;;;;;5032318;28;20098;-83
2022/10/08 09:03:51;;;;;;;15.20;2.03;;;13.20;99.90;;;;;;5052315;28;19916;-85
2022/10/08 09:06:21;;;;;;;9.25;1.40;;;13.30;99.90;;;;;;5053141;28;20094;-82
2022/10/08 09:09:39;;;;;;;10.55;1.52;;;13.30;99.90;;;;;;5042683;28;20033;-82
2022/10/08 09:12:28;;;;;;;13.32;1.67;;;13.50;99.90;;;;;;4971215;28;20069;-83
2022/10/08 09:14:57;;;;;;;10.57;1.70;;;13.80;99.90;;;;;;4960900;28;20065;-81
2022/10/08 09:17:36;;;;;;;15.65;2.35;;;13.80;99.90;;;;;;4993862;28;20450;-82
2022/10/08 09:20:03;;;;;;;8.82;1.52;;;13.90;99.90;;;;;;4955170;28;20160;-82
2022/10/08 09:22:33;;;;;;;12.38;1.83;;;13.90;99.90;;;;;;4974497;28;20109;-82
2022/10/08 09:25:05;;;;;;;14.30;1.60;;;14.00;99.90;;;;;;4961821;28;20212;-83
2022/10/08 09:27:59;;;;;;;17.42;2.10;;;14.10;99.90;;;;;;4991537;28;20124;-83
2022/10/08 09:30:33;;;;;;;14.52;2.55;;;14.20;99.90;;;;;;4960742;28;20050;-84
2022/10/08 09:33:02;;;;;;;18.53;1.87;;;14.30;99.90;;;;;;4991447;28;20233;-83
2022/10/08 09:35:32;;;;;;;15.50;1.77;;;14.30;99.90;;;;;;4982476;28;20050;-81
2022/10/08 09:37:58;;;;;;;13.40;1.67;;;14.40;99.90;;;;;;4969529;28;20490;-82
2022/10/08 09:40:26;;;;;;;14.02;1.98;;;14.50;99.90;;;;;;4978292;28;20448;-81
2022/10/08 09:43:13;;;;;;;14.73;1.80;;;14.70;99.90;;;;;;4971677;28;20052;-84
2022/10/08 09:45:45;;;;;;;15.13;2.00;;;14.80;99.90;;;;;;5004742;28;20464;-82
2022/10/08 09:48:24;;;;;;;14.23;1.58;;;13.90;99.90;;;;;;5034408;28;20059;-84
2022/10/08 09:50:54;;;;;;;11.73;1.67;;;13.40;99.90;;;;;;5035833;28;20480;-83
2022/10/08 09:53:22;;;;;;;10.82;1.70;;;13.20;99.90;;;;;;5032571;28;20040;-83
2022/10/08 09:55:53;;;;;;;15.35;1.70;;;13.10;99.90;;;;;;5050605;28;20044;-83
2022/10/08 09:58:19;;;;;;;12.73;2.25;;;13.10;99.90;;;;;;5051731;28;20102;-82
2022/10/08 10:00:55;;;;;;;13.00;1.95;;;13.10;99.90;;;;;;5033765;28;20052;-84
2022/10/08 10:03:23;;;;;;;15.27;1.90;;;12.90;99.90;;;;;;5052326;28;20036;-84
2022/10/08 10:05:54;;;;;;;11.55;2.03;;;13.00;99.90;;;;;;5032344;28;20057;-85
2022/10/08 10:09:01;;;;;;;14.10;2.25;;;13.20;99.90;;;;;;5068167;28;20044;-83
2022/10/08 10:11:37;;;;;;;12.30;1.83;;;13.30;99.90;;;;;;4975179;28;20104;-82
2022/10/08 10:14:16;;;;;;;15.98;1.98;;;13.40;99.90;;;;;;4992794;28;20493;-83
2022/10/08 10:16:44;;;;;;;11.15;1.70;;;13.30;99.90;;;;;;5007841;28;20084;-83
2022/10/08 10:19:24;;;;;;;14.77;1.92;;;13.30;99.90;;;;;;4993312;28;20041;-86
2022/10/08 10:22:14;;;;;;;13.70;1.90;;;13.40;99.90;;;;;;5011907;28;20064;-84
2022/10/08 10:25:08;;;;;;;12.25;2.00;;;13.60;99.90;;;;;;4994424;28;20164;-83
2022/10/08 10:27:39;;;;;;;15.23;2.20;;;13.80;99.90;;;;;;4990158;28;20041;-84
2022/10/08 10:30:27;;;;;;;13.57;2.00;;;14.00;99.90;;;;;;4994003;28;20049;-84
2022/10/08 10:33:14;;;;;;;13.02;2.10;;;13.90;99.90;;;;;;4990401;28;20073;-85
2022/10/08 10:35:49;;;;;;;16.05;2.13;;;13.80;99.90;;;;;;4993826;28;20160;-83
2022/10/08 10:38:24;;;;;;;11.60;2.10;;;13.70;99.90;;;;;;5012903;28;20077;-83
2022/10/08 10:41:08;;;;;;;8.88;1.23;;;13.60;99.90;;;;;;5022299;28;20080;-83
2022/10/08 10:43:41;;;;;;;9.00;1.80;;;13.70;99.90;;;;;;5030991;28;20050;-83
2022/10/08 10:46:30;;;;;;;15.35;1.85;;;13.80;99.90;;;;;;5004271;28;20056;-82
2022/10/08 10:48:56;;;;;;;13.93;1.80;;;14.20;99.90;;;;;;5043831;28;20052;-85
2022/10/08 10:51:34;;;;;;;15.70;2.38;;;14.60;99.90;;;;;;5074215;28;20132;-84
2022/10/08 10:54:14;;;;;;;18.42;2.45;;;15.00;99.90;;;;;;5073865;28;20059;-86
2022/10/08 10:56:50;;;;;;;12.45;2.33;;;15.10;99.90;;;;;;5066633;28;20105;-85
2022/10/08 10:59:48;;;;;;;11.80;1.50;;;15.10;99.90;;;;;;5072831;28;20455;-86
2022/10/08 11:02:32;;;;;;;11.65;2.15;;;15.00;99.90;;;;;;5088835;28;20146;-84
2022/10/08 11:05:03;;;;;;;13.55;2.00;;;15.10;99.90;;;;;;5073875;28;20087;-86
2022/10/08 11:07:51;;;;;;;12.65;2.28;;;14.80;99.90;;;;;;5087094;28;20051;-82
2022/10/08 11:10:42;;;;;;;10.45;1.88;;;14.70;99.90;;;;;;5081971;28;20520;-84
2022/10/08 11:13:26;;;;;;;12.23;1.63;;;14.30;99.90;;;;;;5053936;28;20044;-88
2022/10/08 11:16:13;;;;;;;11.43;2.00;;;14.20;99.90;;;;;;5075433;28;20075;-87
2022/10/08 11:18:59;;;;;;;17.17;3.35;;;14.30;99.90;;;;;;5097750;28;20036;-85
2022/10/08 11:21:34;;;;;;;11.30;2.55;;;14.30;99.90;;;;;;5054844;28;20056;-86
2022/10/08 11:24:26;;;;;;;8.75;2.80;;;14.40;99.90;;;;;;5072817;28;20047;-84
2022/10/08 11:27:22;;;;;;;14.95;3.20;;;14.50;99.90;;;;;;5055900;28;20052;-82
2022/10/08 11:29:47;;;;;;;;;;;14.50;99.90;;;;;;5067678;28;20040;-85
2022/10/08 11:32:16;;;;;;;16.63;3.60;;;14.40;99.90;;;;;;5052262;28;19922;-85
2022/10/08 11:34:52;;;;;;;5.32;1.05;;;14.50;99.90;;;;;;5054431;28;20535;-82
2022/10/08 11:37:40;;;;;;;4.57;0.85;;;14.30;99.90;;;;;;5049263;28;20051;-84
2022/10/08 11:40:25;;;;;;;5.50;1.80;;;13.30;99.90;;;;;;5069671;28;20035;-84
2022/10/08 11:43:03;;;;;;;7.28;1.52;;;13.20;99.90;;;;;;5092782;28;20055;-84
2022/10/08 11:45:33;;;;;;;5.10;1.10;;;13.10;99.90;;;;;;5061643;28;20123;-83
2022/10/08 11:48:01;;;;;;;10.10;1.83;;;12.80;99.90;;;;;;5059261;28;20079;-84
2022/10/08 11:50:28;;;;;;;6.68;1.23;;;12.80;99.90;;;;;;5093388;28;20428;-84
2022/10/08 11:53:13;;;;;;;8.35;1.55;;;12.80;99.90;;;;;;5072857;28;20044;-82
2022/10/08 11:55:46;;;;;;;12.70;1.55;;;12.70;99.90;;;;;;5073671;28;20076;-84
2022/10/08 11:58:34;;;;;;;14.82;1.70;;;12.60;99.90;;;;;;5057277;28;20089;-84
2022/10/08 12:01:05;;;;;;;9.13;1.52;;;12.90;99.90;;;;;;5067633;28;20043;-84
2022/10/08 12:03:35;;;;;;;6.88;1.55;;;13.10;99.90;;;;;;5051015;28;20036;-83
2022/10/08 12:06:28;;;;;;;10.07;1.50;;;13.20;99.90;;;;;;5054391;28;20044;-85
2022/10/08 12:08:57;;;;;;;11.45;1.75;;;13.50;99.90;;;;;;5050724;28;20102;-85
2022/10/08 12:11:28;;;;;;;9.02;1.67;;;13.90;99.90;;;;;;5064013;28;20057;-88
2022/10/08 12:14:50;;;;;;;16.92;2.53;;;14.00;99.90;;;;;;5088302;28;20035;-85
2022/10/08 12:17:16;;;;;;;11.43;1.83;;;14.40;99.90;;;;;;5079869;28;20483;-83
2022/10/08 12:19:58;;;;;;;15.13;2.33;;;14.80;99.90;;;;;;5081833;28;20075;-82
2022/10/08 12:22:27;;;;;;;16.15;2.05;;;15.00;99.90;;;;;;5067479;28;20109;-85
2022/10/08 12:25:02;;;;;;;12.70;1.98;;;15.30;99.90;;;;;;5037868;28;20049;-83
2022/10/08 12:27:34;;;;;;;14.98;2.08;;;15.60;99.90;;;;;;5070210;28;20139;-85
2022/10/08 12:30:07;;;;;;;13.82;1.80;;;15.80;99.90;;;;;;5075649;28;20456;-84
2022/10/08 12:32:59;;;;;;;19.02;2.10;;;15.90;99.90;;;;;;5065596;28;20508;-83
2022/10/08 12:35:54;;;;;;;9.55;1.85;;;16.10;99.90;;;;;;5071965;28;20059;-85
2022/10/08 12:38:40;;;;;;;10.45;1.42;;;15.90;99.90;;;;;;5078868;28;20436;-84
2022/10/08 12:41:27;;;;;;;7.07;1.25;;;15.30;99.90;;;;;;5056389;28;20445;-84
2022/10/08 12:44:25;;;;;;;5.95;1.23;;;14.60;99.90;;;;;;5066036;28;20047;-86
2022/10/08 12:47:36;;;;;;;6.28;1.30;;;14.60;99.90;;;;;;5057989;28;20129;-84
2022/10/08 12:50:22;;;;;;;7.25;1.35;;;14.40;99.90;;;;;;5013887;28;20045;-84
2022/10/08 12:52:52;;;;;;;11.88;1.58;;;14.30;99.90;;;;;;5021019;28;20073;-86
2022/10/08 12:55:20;;;;;;;12.90;1.83;;;14.10;99.90;;;;;;5033493;28;20049;-85
2022/10/08 12:57:48;;;;;;;12.55;1.85;;;14.00;99.90;;;;;;5028420;28;21534;-85
2022/10/08 13:00:17;;;;;;;10.55;1.88;;;13.60;99.90;;;;;;5025330;28;20051;-84
2022/10/08 13:02:43;;;;;;;6.18;1.23;;;13.10;99.90;;;;;;5011441;28;20072;-83
2022/10/08 13:05:24;;;;;;;6.47;1.15;;;12.60;99.90;;;;;;5029184;28;20110;-87
2022/10/08 13:07:50;;;;;;;3.67;0.80;;;12.40;99.90;;;;;;5014929;28;20052;-88
2022/10/08 13:10:19;;;;;;;4.00;1.10;;;12.40;99.90;;;;;;5029817;28;20061;-87